Time;durP1;ratioP1;P1;durP2;ratioP2;P2;SDS_P1;SDS_P2;PMS_P1;PMS_P2;Temp;Humidity;BMP_temperature;BMP_pressure;BME280_temperature;BME280_humidity;BME280_pressure;Samples;Min_cycle;Max_cycle;Signal;HPM_P1;HPM_P2
2022/10/16 00:00:03;;;;;;;9.95;5.78;;;;;;;;;;5060086;28;20033;-76
2022/10/16 00:02:29;;;;;;;10.55;5.95;;;;;;;;;;5060462;28;20067;-76
2022/10/16 00:04:55;;;;;;;11.00;5.45;;;;;;;;;;5060413;28;20025;-76
2022/10/16 00:07:21;;;;;;;12.50;5.93;;;;;;;;;;5060302;28;20395;-76
2022/10/16 00:09:47;;;;;;;8.15;6.13;;;;;;;;;;5042067;28;20040;-76
2022/10/16 00:12:13;;;;;;;9.00;5.72;;;;;;;;;;5060185;28;20056;-76
2022/10/16 00:14:41;;;;;;;9.02;5.82;;;;;;;;;;5060242;28;20067;-76
2022/10/16 00:17:07;;;;;;;12.73;6.30;;;;;;;;;;5060147;28;20039;-76
2022/10/16 00:19:33;;;;;;;10.20;5.88;;;;;;;;;;5060054;28;20130;-75
2022/10/16 00:21:59;;;;;;;11.75;6.20;;;;;;;;;;5059892;28;20391;-76
2022/10/16 00:24:25;;;;;;;9.82;5.90;;;;;;;;;;5042175;28;20029;-76
2022/10/16 00:26:51;;;;;;;7.43;5.32;;;;;;;;;;5059891;28;20035;-76
2022/10/16 00:29:17;;;;;;;9.35;5.50;;;;;;;;;;5059989;28;20048;-76
2022/10/16 00:31:43;;;;;;;13.30;6.05;;;;;;;;;;5059809;28;20330;-76
2022/10/16 00:34:09;;;;;;;13.35;5.40;;;;;;;;;;5059919;28;20078;-76
2022/10/16 00:36:35;;;;;;;11.18;6.05;;;;;;;;;;5059715;28;20033;-75
2022/10/16 00:39:02;;;;;;;9.68;5.20;;;;;;;;;;5059477;28;20021;-75
2022/10/16 00:41:28;;;;;;;11.15;5.97;;;;;;;;;;5041952;28;20029;-75
2022/10/16 00:43:56;;;;;;;10.63;5.68;;;;;;;;;;5059798;28;20108;-76
2022/10/16 00:46:34;;;;;;;15.10;5.63;;;;;;;;;;5059526;28;20399;-76
2022/10/16 00:49:03;;;;;;;9.82;6.10;;;;;;;;;;5059428;28;20315;-76
2022/10/16 00:51:32;;;;;;;8.30;5.53;;;;;;;;;;5059523;28;20120;-76
2022/10/16 00:53:58;;;;;;;11.52;6.28;;;;;;;;;;5059103;28;20131;-76
2022/10/16 00:56:24;;;;;;;8.10;5.15;;;;;;;;;;5040650;28;20049;-75
2022/10/16 00:58:50;;;;;;;9.88;5.07;;;;;;;;;;5059444;28;20020;-75
2022/10/16 01:01:16;;;;;;;8.77;5.45;;;;;;;;;;5059351;28;20028;-75
2022/10/16 01:03:42;;;;;;;10.63;5.63;;;;;;;;;;5059427;28;20153;-75
2022/10/16 01:06:14;;;;;;;11.25;5.75;;;;;;;;;;5059332;28;20028;-76
2022/10/16 01:08:47;;;;;;;9.93;5.57;;;;;;;;;;5059263;28;20029;-75
2022/10/16 01:11:20;;;;;;;8.32;5.38;;;;;;;;;;5059328;28;20029;-76
2022/10/16 01:13:49;;;;;;;8.45;5.13;;;;;;;;;;5059023;28;20482;-76
2022/10/16 01:16:35;;;;;;;8.60;5.07;;;;;;;;;;5058970;28;20100;-76
2022/10/16 01:19:01;;;;;;;8.82;5.57;;;;;;;;;;5058808;28;20425;-75
2022/10/16 01:21:34;;;;;;;12.15;5.47;;;;;;;;;;5041250;28;20025;-75
2022/10/16 01:24:04;;;;;;;9.05;5.72;;;;;;;;;;5058934;28;20025;-75
2022/10/16 01:26:34;;;;;;;11.40;5.30;;;;;;;;;;5058788;28;20319;-76
2022/10/16 01:29:19;;;;;;;9.13;5.43;;;;;;;;;;5058956;28;20044;-75
2022/10/16 01:31:47;;;;;;;13.48;5.18;;;;;;;;;;5058728;28;20025;-76
2022/10/16 01:34:15;;;;;;;13.27;5.65;;;;;;;;;;5058688;28;20452;-75
2022/10/16 01:36:44;;;;;;;10.75;5.30;;;;;;;;;;5058585;28;20127;-75
2022/10/16 01:39:11;;;;;;;8.65;5.50;;;;;;;;;;5058609;28;20021;-75
2022/10/16 01:41:39;;;;;;;8.35;5.22;;;;;;;;;;5058452;28;20411;-75
2022/10/16 01:44:08;;;;;;;9.60;5.20;;;;;;;;;;5040770;28;20075;-75
2022/10/16 01:46:35;;;;;;;9.90;5.45;;;;;;;;;;5058318;28;20441;-75
2022/10/16 01:49:02;;;;;;;9.70;5.57;;;;;;;;;;5058489;28;20025;-75
2022/10/16 01:51:29;;;;;;;8.57;5.20;;;;;;;;;;5058346;28;20025;-75
2022/10/16 01:53:58;;;;;;;11.90;5.57;;;;;;;;;;5058096;28;20049;-75
2022/10/16 01:56:24;;;;;;;9.27;4.95;;;;;;;;;;5058163;28;20326;-75
2022/10/16 01:58:56;;;;;;;7.00;4.90;;;;;;;;;;5040525;28;20033;-75
2022/10/16 02:01:23;;;;;;;7.57;4.78;;;;;;;;;;5040460;28;20064;-75
2022/10/16 02:03:53;;;;;;;8.88;4.82;;;;;;;;;;5058337;28;20025;-75
2022/10/16 02:06:19;;;;;;;9.50;4.82;;;;;;;;;;5058179;28;20056;-75
2022/10/16 02:08:45;;;;;;;8.00;4.72;;;;;;;;;;5058090;28;20100;-76
2022/10/16 02:11:11;;;;;;;11.82;5.32;;;;;;;;;;5058010;28;20360;-75
2022/10/16 02:13:39;;;;;;;11.07;5.28;;;;;;;;;;5057869;28;20369;-76
2022/10/16 02:16:05;;;;;;;9.13;5.63;;;;;;;;;;5057892;28;20021;-76
2022/10/16 02:18:31;;;;;;;7.72;5.07;;;;;;;;;;5040158;28;20016;-76
2022/10/16 02:21:00;;;;;;;12.95;5.70;;;;;;;;;;5057895;28;20350;-76
2022/10/16 02:23:45;;;;;;;9.75;4.88;;;;;;;;;;5057587;28;20028;-76
2022/10/16 02:26:14;;;;;;;10.98;4.95;;;;;;;;;;5057555;28;20390;-76
2022/10/16 02:28:42;;;;;;;8.88;4.70;;;;;;;;;;5057815;28;20032;-76
2022/10/16 02:31:11;;;;;;;8.45;4.55;;;;;;;;;;5057781;28;20108;-76
2022/10/16 02:33:39;;;;;;;9.40;5.07;;;;;;;;;;5057742;28;20020;-76
2022/10/16 02:36:05;;;;;;;10.73;5.88;;;;;;;;;;5057642;28;20044;-76
2022/10/16 02:38:31;;;;;;;8.63;5.15;;;;;;;;;;5057365;28;20105;-76
2022/10/16 02:40:58;;;;;;;12.50;5.57;;;;;;;;;;5057535;28;20044;-76
2022/10/16 02:43:25;;;;;;;8.73;5.20;;;;;;;;;;5057371;28;20307;-76
2022/10/16 02:45:51;;;;;;;11.90;5.47;;;;;;;;;;5057424;28;20403;-76
2022/10/16 02:48:17;;;;;;;12.48;5.30;;;;;;;;;;5057341;28;20039;-76
2022/10/16 02:50:43;;;;;;;11.00;5.32;;;;;;;;;;5056865;28;20112;-76
2022/10/16 02:53:09;;;;;;;8.73;5.10;;;;;;;;;;5039296;28;20114;-75
2022/10/16 02:55:35;;;;;;;12.50;5.43;;;;;;;;;;5056904;28;20061;-75
2022/10/16 02:58:01;;;;;;;6.78;5.00;;;;;;;;;;5057044;28;20478;-75
2022/10/16 03:00:28;;;;;;;15.30;5.68;;;;;;;;;;5057110;28;20057;-75
2022/10/16 03:02:54;;;;;;;9.15;5.30;;;;;;;;;;5057014;28;20063;-75
2022/10/16 03:05:20;;;;;;;12.60;5.28;;;;;;;;;;5056955;28;20025;-75
2022/10/16 03:07:46;;;;;;;10.88;6.07;;;;;;;;;;5057044;28;20116;-75
2022/10/16 03:10:12;;;;;;;10.05;5.65;;;;;;;;;;5056860;28;20025;-75
2022/10/16 03:12:38;;;;;;;10.65;5.70;;;;;;;;;;5056957;28;20032;-75
2022/10/16 03:15:04;;;;;;;8.50;4.90;;;;;;;;;;5057115;28;20052;-75
2022/10/16 03:17:32;;;;;;;7.75;5.43;;;;;;;;;;5056887;28;20029;-75
2022/10/16 03:19:58;;;;;;;9.35;5.75;;;;;;;;;;5056820;28;20017;-75
2022/10/16 03:22:24;;;;;;;9.40;5.25;;;;;;;;;;5056869;28;20307;-75
2022/10/16 03:24:50;;;;;;;9.02;5.22;;;;;;;;;;5056820;28;20036;-75
2022/10/16 03:27:16;;;;;;;11.73;5.50;;;;;;;;;;5056996;28;20025;-75
2022/10/16 03:29:42;;;;;;;13.27;5.80;;;;;;;;;;5056898;28;20040;-75
2022/10/16 03:32:08;;;;;;;11.30;5.38;;;;;;;;;;5057006;28;20181;-75
2022/10/16 03:34:34;;;;;;;9.90;5.60;;;;;;;;;;5056855;28;20045;-75
2022/10/16 03:37:00;;;;;;;13.15;6.18;;;;;;;;;;5056749;28;20107;-75
2022/10/16 03:39:26;;;;;;;10.57;6.03;;;;;;;;;;5056637;28;20360;-75
2022/10/16 03:41:53;;;;;;;8.82;5.75;;;;;;;;;;5056602;28;20025;-75
2022/10/16 03:44:19;;;;;;;7.97;5.63;;;;;;;;;;5056594;28;20422;-76
2022/10/16 03:46:45;;;;;;;11.05;5.88;;;;;;;;;;5056613;28;20029;-75
2022/10/16 03:49:11;;;;;;;10.25;5.93;;;;;;;;;;5056689;28;20032;-76
2022/10/16 03:51:37;;;;;;;9.48;5.60;;;;;;;;;;5055045;28;20028;-75
2022/10/16 03:54:03;;;;;;;11.73;6.45;;;;;;;;;;5056285;28;20055;-76
2022/10/16 03:56:29;;;;;;;10.80;5.78;;;;;;;;;;5038814;28;20077;-76
2022/10/16 03:58:55;;;;;;;8.93;6.18;;;;;;;;;;5056417;28;20024;-76
2022/10/16 04:01:21;;;;;;;8.48;5.78;;;;;;;;;;5056517;28;20021;-76
2022/10/16 04:03:47;;;;;;;10.38;6.10;;;;;;;;;;5056582;28;20017;-76
2022/10/16 04:06:13;;;;;;;10.95;6.20;;;;;;;;;;5056408;28;20029;-76
2022/10/16 04:08:39;;;;;;;10.90;5.78;;;;;;;;;;5056495;28;20032;-76
2022/10/16 04:11:05;;;;;;;11.57;6.70;;;;;;;;;;5056533;28;20021;-76
2022/10/16 04:13:31;;;;;;;10.75;6.32;;;;;;;;;;5056364;28;20047;-76
2022/10/16 04:15:57;;;;;;;11.90;6.07;;;;;;;;;;5056216;28;20025;-76
2022/10/16 04:18:26;;;;;;;15.82;5.85;;;;;;;;;;5056546;28;20069;-75
2022/10/16 04:20:53;;;;;;;10.75;6.20;;;;;;;;;;5038700;28;20036;-76
2022/10/16 04:23:19;;;;;;;11.73;5.82;;;;;;;;;;5038767;28;20036;-77
2022/10/16 04:25:45;;;;;;;10.55;6.38;;;;;;;;;;5056282;28;20037;-76
2022/10/16 04:28:11;;;;;;;12.07;6.20;;;;;;;;;;5056213;28;20411;-76
2022/10/16 04:30:38;;;;;;;10.00;6.47;;;;;;;;;;5057376;28;20029;-75
2022/10/16 04:33:04;;;;;;;11.05;7.28;;;;;;;;;;5059744;28;20438;-75
2022/10/16 04:35:30;;;;;;;13.98;7.03;;;;;;;;;;5041829;28;20037;-76
2022/10/16 04:38:00;;;;;;;11.18;7.03;;;;;;;;;;5059798;28;20025;-76
2022/10/16 04:40:26;;;;;;;10.80;7.30;;;;;;;;;;5059638;28;20067;-75
2022/10/16 04:42:52;;;;;;;10.48;6.60;;;;;;;;;;5059605;28;20028;-75
2022/10/16 04:45:18;;;;;;;11.35;7.03;;;;;;;;;;5041882;28;20021;-76
2022/10/16 04:47:44;;;;;;;9.38;6.38;;;;;;;;;;5041839;28;20037;-76
2022/10/16 04:50:10;;;;;;;16.17;8.07;;;;;;;;;;5059372;28;20066;-76
2022/10/16 04:52:36;;;;;;;11.07;7.03;;;;;;;;;;5041477;28;20037;-76
2022/10/16 04:55:02;;;;;;;13.43;7.10;;;;;;;;;;5059248;28;20028;-75
2022/10/16 04:57:29;;;;;;;16.30;8.27;;;;;;;;;;5059244;28;20025;-75
2022/10/16 04:59:56;;;;;;;14.98;8.00;;;;;;;;;;5059382;28;20071;-75
2022/10/16 05:02:22;;;;;;;11.98;7.38;;;;;;;;;;5059494;28;20071;-75
2022/10/16 05:04:48;;;;;;;12.13;8.35;;;;;;;;;;5059351;28;20021;-75
2022/10/16 05:07:14;;;;;;;14.77;8.93;;;;;;;;;;5059247;28;20052;-75
2022/10/16 05:09:40;;;;;;;17.80;9.20;;;;;;;;;;5059088;28;20052;-75
2022/10/16 05:12:06;;;;;;;14.07;9.70;;;;;;;;;;5041465;28;20051;-75
2022/10/16 05:14:32;;;;;;;18.95;9.95;;;;;;;;;;5059099;28;20399;-75
2022/10/16 05:16:58;;;;;;;16.20;10.18;;;;;;;;;;5058915;28;20029;-75
2022/10/16 05:19:24;;;;;;;13.48;9.68;;;;;;;;;;5059212;28;20036;-75
2022/10/16 05:21:50;;;;;;;15.70;10.75;;;;;;;;;;5058927;28;20021;-75
2022/10/16 05:24:16;;;;;;;21.25;12.02;;;;;;;;;;5058816;28;20021;-75
2022/10/16 05:26:42;;;;;;;20.17;10.68;;;;;;;;;;5058755;28;20040;-75
2022/10/16 05:29:09;;;;;;;19.35;11.73;;;;;;;;;;5058763;28;20032;-75
2022/10/16 05:31:35;;;;;;;16.38;11.07;;;;;;;;;;5058956;28;20048;-75
2022/10/16 05:34:01;;;;;;;24.30;12.15;;;;;;;;;;5058848;28;20299;-75
2022/10/16 05:36:27;;;;;;;21.38;13.35;;;;;;;;;;5040811;28;20029;-76
2022/10/16 05:38:53;;;;;;;19.15;12.35;;;;;;;;;;5058719;28;20017;-76
2022/10/16 05:41:21;;;;;;;17.17;12.63;;;;;;;;;;5058041;28;20020;-76
2022/10/16 05:43:48;;;;;;;19.30;13.00;;;;;;;;;;5040808;28;20445;-76
2022/10/16 05:46:14;;;;;;;19.48;13.63;;;;;;;;;;5058413;28;20075;-76
2022/10/16 05:48:40;;;;;;;19.67;13.75;;;;;;;;;;5043650;28;20040;-76
2022/10/16 05:51:07;;;;;;;16.20;13.27;;;;;;;;;;5059727;28;20033;-76
2022/10/16 05:53:33;;;;;;;19.08;13.20;;;;;;;;;;5042739;28;20041;-76
2022/10/16 05:56:00;;;;;;;21.48;14.60;;;;;;;;;;5058212;28;20045;-76
2022/10/16 05:58:28;;;;;;;22.45;16.20;;;;;;;;;;5058215;28;20025;-76
2022/10/16 06:00:56;;;;;;;23.10;16.48;;;;;;;;;;5058259;28;20025;-76
2022/10/16 06:03:22;;;;;;;25.85;17.73;;;;;;;;;;5058405;28;20024;-76
2022/10/16 06:05:48;;;;;;;28.80;18.70;;;;;;;;;;5051742;28;20021;-76
2022/10/16 06:08:14;;;;;;;20.10;15.13;;;;;;;;;;5037924;28;20042;-75
2022/10/16 06:10:40;;;;;;;29.05;19.17;;;;;;;;;;5037759;28;20026;-76
2022/10/16 06:13:06;;;;;;;24.27;15.80;;;;;;;;;;5038048;28;20031;-75
2022/10/16 06:15:32;;;;;;;21.80;15.10;;;;;;;;;;5038123;28;20029;-75
2022/10/16 06:17:58;;;;;;;19.90;13.65;;;;;;;;;;5038012;28;20388;-76
2022/10/16 06:20:24;;;;;;;20.45;13.40;;;;;;;;;;5038160;28;20036;-76
2022/10/16 06:22:50;;;;;;;18.83;13.45;;;;;;;;;;5036971;28;20331;-76
2022/10/16 06:25:16;;;;;;;19.40;11.65;;;;;;;;;;5037829;28;20090;-76
2022/10/16 06:27:42;;;;;;;23.45;13.45;;;;;;;;;;5037378;28;20030;-76
2022/10/16 06:30:08;;;;;;;19.48;12.80;;;;;;;;;;5037723;28;20116;-76
2022/10/16 06:32:35;;;;;;;18.17;12.25;;;;;;;;;;5037642;28;20118;-76
2022/10/16 06:35:01;;;;;;;16.27;11.10;;;;;;;;;;5036162;28;20025;-76
2022/10/16 06:37:27;;;;;;;17.60;12.00;;;;;;;;;;5036932;28;20415;-77
2022/10/16 06:39:53;;;;;;;16.77;10.85;;;;;;;;;;5037247;28;20021;-76
2022/10/16 06:42:19;;;;;;;17.27;12.38;;;;;;;;;;5036095;28;20080;-76
2022/10/16 06:44:45;;;;;;;14.05;10.02;;;;;;;;;;5037565;28;20017;-76
2022/10/16 06:47:12;;;;;;;17.33;10.40;;;;;;;;;;5037323;28;20029;-76
2022/10/16 06:49:38;;;;;;;16.67;9.63;;;;;;;;;;5037457;28;20026;-76
2022/10/16 06:52:04;;;;;;;14.43;10.75;;;;;;;;;;5037463;28;20029;-76
2022/10/16 06:54:30;;;;;;;15.55;10.38;;;;;;;;;;5056466;28;20108;-75
2022/10/16 06:56:56;;;;;;;14.75;9.05;;;;;;;;;;5057138;28;20032;-76
2022/10/16 06:59:22;;;;;;;20.25;10.52;;;;;;;;;;5057107;28;20021;-76
2022/10/16 07:01:48;;;;;;;18.13;10.95;;;;;;;;;;5056920;28;20025;-76
2022/10/16 07:04:15;;;;;;;16.60;8.48;;;;;;;;;;5057054;28;20314;-75
2022/10/16 07:06:41;;;;;;;12.20;7.93;;;;;;;;;;5056962;28;20111;-77
2022/10/16 07:09:10;;;;;;;14.32;8.88;;;;;;;;;;5056168;28;20068;-78
2022/10/16 07:11:37;;;;;;;12.02;8.52;;;;;;;;;;5056937;28;20116;-78
2022/10/16 07:14:03;;;;;;;17.77;11.27;;;;;;;;;;5057051;28;20053;-78
2022/10/16 07:16:30;;;;;;;13.60;9.65;;;;;;;;;;5056611;28;20296;-78
2022/10/16 07:18:58;;;;;;;14.75;8.27;;;;;;;;;;5057002;28;20104;-76
2022/10/16 07:21:25;;;;;;;15.75;10.55;;;;;;;;;;5057036;28;20025;-76
2022/10/16 07:23:55;;;;;;;16.52;10.23;;;;;;;;;;5056896;28;20070;-76
2022/10/16 07:26:21;;;;;;;17.30;9.35;;;;;;;;;;5057080;28;20036;-77
2022/10/16 07:28:47;;;;;;;15.55;9.50;;;;;;;;;;5056673;28;20029;-77
2022/10/16 07:31:14;;;;;;;23.10;10.65;;;;;;;;;;5038745;28;20044;-79
2022/10/16 07:33:42;;;;;;;17.33;10.77;;;;;;;;;;5057020;28;20033;-77
2022/10/16 07:36:09;;;;;;;13.60;8.52;;;;;;;;;;5056807;28;20032;-76
2022/10/16 07:38:35;;;;;;;13.57;9.07;;;;;;;;;;5056985;28;20063;-76
2022/10/16 07:41:02;;;;;;;14.73;8.75;;;;;;;;;;5056412;28;20112;-76
2022/10/16 07:43:28;;;;;;;15.00;9.35;;;;;;;;;;5056749;28;20021;-77
2022/10/16 07:45:54;;;;;;;15.40;9.23;;;;;;;;;;5038905;28;20435;-77
2022/10/16 07:48:21;;;;;;;11.77;8.57;;;;;;;;;;5056557;28;20017;-77
2022/10/16 07:50:47;;;;;;;16.85;10.40;;;;;;;;;;5056695;28;20108;-84
2022/10/16 07:53:13;;;;;;;15.77;8.98;;;;;;;;;;5056519;28;20120;-77
2022/10/16 07:55:39;;;;;;;15.88;9.77;;;;;;;;;;5038773;28;20084;-76
2022/10/16 07:58:06;;;;;;;14.60;9.55;;;;;;;;;;5056481;28;20419;-77
2022/10/16 08:00:32;;;;;;;14.27;8.18;;;;;;;;;;5038837;28;20107;-77
2022/10/16 08:03:01;;;;;;;13.00;7.72;;;;;;;;;;5056467;28;20403;-77
2022/10/16 08:05:28;;;;;;;11.63;7.55;;;;;;;;;;5059330;28;20021;-77
2022/10/16 08:07:54;;;;;;;12.27;7.32;;;;;;;;;;5060234;28;20057;-77
2022/10/16 08:10:21;;;;;;;13.27;7.07;;;;;;;;;;5060072;28;20035;-77
2022/10/16 08:12:47;;;;;;;10.50;6.68;;;;;;;;;;5042498;28;20030;-77
2022/10/16 08:15:13;;;;;;;12.93;7.32;;;;;;;;;;5060184;28;20056;-77
2022/10/16 08:17:39;;;;;;;14.13;7.43;;;;;;;;;;5042483;28;20025;-77
2022/10/16 08:20:06;;;;;;;14.27;7.15;;;;;;;;;;5042370;28;20033;-77
2022/10/16 08:22:32;;;;;;;12.00;6.28;;;;;;;;;;5060209;28;20028;-77
2022/10/16 08:24:58;;;;;;;12.35;5.50;;;;;;;;;;5059828;28;20031;-77
2022/10/16 08:27:24;;;;;;;17.27;7.10;;;;;;;;;;5060188;28;20048;-77
2022/10/16 08:29:50;;;;;;;13.73;7.35;;;;;;;;;;5060165;28;20080;-77
2022/10/16 08:32:16;;;;;;;15.63;8.80;;;;;;;;;;5059849;28;20415;-77
2022/10/16 08:34:42;;;;;;;13.15;7.30;;;;;;;;;;5042166;28;20355;-76
2022/10/16 08:37:11;;;;;;;8.75;5.22;;;;;;;;;;5059685;28;20017;-77
2022/10/16 08:39:37;;;;;;;13.63;6.05;;;;;;;;;;5042178;28;20061;-77
2022/10/16 08:42:03;;;;;;;9.65;4.90;;;;;;;;;;5059849;28;20024;-77
2022/10/16 08:44:32;;;;;;;9.35;4.70;;;;;;;;;;5059826;28;20132;-77
2022/10/16 08:47:01;;;;;;;11.88;5.47;;;;;;;;;;5042195;28;20326;-77
2022/10/16 08:49:27;;;;;;;11.32;6.53;;;;;;;;;;5059882;28;20074;-77
2022/10/16 08:51:54;;;;;;;13.70;6.10;;;;;;;;;;5041640;28;20040;-77
2022/10/16 08:54:23;;;;;;;13.30;6.25;;;;;;;;;;5059307;28;20053;-78
2022/10/16 08:56:49;;;;;;;7.32;5.00;;;;;;;;;;5059151;28;20025;-78
2022/10/16 08:59:16;;;;;;;13.27;6.05;;;;;;;;;;5059507;28;20029;-77
2022/10/16 09:01:45;;;;;;;11.65;5.35;;;;;;;;;;5059252;28;20318;-77
2022/10/16 09:04:17;;;;;;;10.90;5.03;;;;;;;;;;5059420;28;20025;-77
2022/10/16 09:06:49;;;;;;;12.57;5.72;;;;;;;;;;5059315;28;20351;-77
2022/10/16 09:09:18;;;;;;;10.25;5.45;;;;;;;;;;5058848;28;20028;-76
2022/10/16 09:11:49;;;;;;;9.10;5.07;;;;;;;;;;5059278;28;20280;-77
2022/10/16 09:14:36;;;;;;;9.07;6.05;;;;;;;;;;5058927;28;20304;-76
2022/10/16 09:17:14;;;;;;;11.00;5.35;;;;;;;;;;5058201;28;20032;-76
2022/10/16 09:19:46;;;;;;;8.25;4.95;;;;;;;;;;5041124;28;20061;-76
2022/10/16 09:22:17;;;;;;;10.27;4.90;;;;;;;;;;5041157;28;20029;-76
2022/10/16 09:24:43;;;;;;;6.85;4.88;;;;;;;;;;5059052;28;20021;-78
2022/10/16 09:27:14;;;;;;;7.40;4.53;;;;;;;;;;5041121;28;20033;-76
2022/10/16 09:29:40;;;;;;;10.23;5.65;;;;;;;;;;5058633;28;20494;-79
2022/10/16 09:32:12;;;;;;;11.55;6.72;;;;;;;;;;5058595;28;20427;-79
2022/10/16 09:34:38;;;;;;;;;;;;;;;;;;5059129;28;20029;-73
2022/10/16 09:37:06;;;;;;;11.70;5.55;;;;;;;;;;5058574;28;19955;-76
2022/10/16 09:39:44;;;;;;;11.38;5.60;;;;;;;;;;5058456;28;20021;-76
2022/10/16 09:42:12;;;;;;;8.75;4.90;;;;;;;;;;5058728;28;20044;-77
2022/10/16 09:44:38;;;;;;;8.30;4.63;;;;;;;;;;5040832;28;20358;-82
2022/10/16 09:47:06;;;;;;;5.55;4.28;;;;;;;;;;5058542;28;20024;-76
2022/10/16 09:49:32;;;;;;;12.63;5.07;;;;;;;;;;5058277;28;20036;-76
2022/10/16 09:52:15;;;;;;;10.80;5.32;;;;;;;;;;5058487;28;20025;-76
2022/10/16 09:54:54;;;;;;;13.13;5.75;;;;;;;;;;5058390;28;20047;-76
2022/10/16 09:57:20;;;;;;;7.28;4.70;;;;;;;;;;5058110;28;20087;-77
2022/10/16 09:59:56;;;;;;;11.13;5.68;;;;;;;;;;5058092;28;20407;-76
2022/10/16 10:02:36;;;;;;;10.18;5.15;;;;;;;;;;5058091;28;20025;-77
2022/10/16 10:05:02;;;;;;;8.73;5.22;;;;;;;;;;5058190;28;20096;-76
2022/10/16 10:07:36;;;;;;;7.80;4.78;;;;;;;;;;5058121;28;20074;-76
2022/10/16 10:10:03;;;;;;;8.77;4.88;;;;;;;;;;5057864;28;20021;-77
2022/10/16 10:12:32;;;;;;;7.28;4.10;;;;;;;;;;5057861;28;20074;-77
2022/10/16 10:15:08;;;;;;;45.88;7.85;;;;;;;;;;5057776;28;20052;-75
2022/10/16 10:17:35;;;;;;;9.27;5.28;;;;;;;;;;5040091;28;20477;-78
2022/10/16 10:20:01;;;;;;;6.75;4.75;;;;;;;;;;5057806;28;20032;-77
2022/10/16 10:22:42;;;;;;;8.98;5.03;;;;;;;;;;5057598;28;20403;-74
2022/10/16 10:25:14;;;;;;;11.43;4.63;;;;;;;;;;5057734;28;20036;-76
2022/10/16 10:27:50;;;;;;;8.43;4.00;;;;;;;;;;5054850;28;20044;-84
2022/10/16 10:30:19;;;;;;;7.78;4.35;;;;;;;;;;5038138;28;20304;-77
2022/10/16 10:32:45;;;;;;;9.18;4.72;;;;;;;;;;5057616;28;20123;-77
2022/10/16 10:35:26;;;;;;;7.88;4.25;;;;;;;;;;5057555;28;20029;-77
2022/10/16 10:37:58;;;;;;;10.98;4.93;;;;;;;;;;5056753;28;20303;-77
2022/10/16 10:40:43;;;;;;;11.82;4.82;;;;;;;;;;5057601;28;20048;-77
2022/10/16 10:43:09;;;;;;;11.15;4.20;;;;;;;;;;5056087;28;20017;-76
2022/10/16 10:45:55;;;;;;;11.05;5.32;;;;;;;;;;5057440;28;20036;-78
2022/10/16 10:48:24;;;;;;;8.75;5.03;;;;;;;;;;5057224;28;20025;-78
2022/10/16 10:50:56;;;;;;;13.63;5.70;;;;;;;;;;5039291;28;20387;-78
2022/10/16 10:53:36;;;;;;;9.10;4.72;;;;;;;;;;5057046;28;20044;-76
2022/10/16 10:56:20;;;;;;;10.45;4.40;;;;;;;;;;5056985;28;20037;-77
2022/10/16 10:59:01;;;;;;;6.82;4.10;;;;;;;;;;5039267;28;20037;-77
2022/10/16 11:01:43;;;;;;;10.27;5.10;;;;;;;;;;5057152;28;20053;-77
2022/10/16 11:04:12;;;;;;;10.25;4.35;;;;;;;;;;5055588;28;20028;-77
2022/10/16 11:07:02;;;;;;;17.63;8.68;;;;;;;;;;5056898;28;20361;-77
2022/10/16 11:09:31;;;;;;;18.60;10.02;;;;;;;;;;5015397;28;20038;-77
2022/10/16 11:12:00;;;;;;;11.07;6.00;;;;;;;;;;5015373;28;20466;-77
2022/10/16 11:14:29;;;;;;;15.68;7.60;;;;;;;;;;5015308;28;20077;-77
2022/10/16 11:16:58;;;;;;;14.43;6.97;;;;;;;;;;5015302;28;20057;-77
2022/10/16 11:19:43;;;;;;;13.38;6.47;;;;;;;;;;5015331;28;20109;-77
2022/10/16 11:22:21;;;;;;;11.93;5.47;;;;;;;;;;5015255;28;20109;-77
2022/10/16 11:25:13;;;;;;;11.80;6.47;;;;;;;;;;5015117;28;20129;-77
2022/10/16 11:27:39;;;;;;;;;;;;;;;;;;5015485;28;20163;-77
2022/10/16 11:30:14;;;;;;;12.45;6.60;;;;;;;;;;5015000;28;20326;-78
2022/10/16 11:33:00;;;;;;;10.98;6.35;;;;;;;;;;5015285;28;20038;-78
2022/10/16 11:35:34;;;;;;;9.15;5.00;;;;;;;;;;5001923;28;20058;-78
2022/10/16 11:38:03;;;;;;;8.63;5.40;;;;;;;;;;5014812;28;20436;-78
2022/10/16 11:40:33;;;;;;;8.98;5.13;;;;;;;;;;5017223;28;20034;-77
2022/10/16 11:43:03;;;;;;;13.65;5.50;;;;;;;;;;5018914;28;20068;-77
2022/10/16 11:45:46;;;;;;;10.93;5.13;;;;;;;;;;5023494;28;20028;-79
2022/10/16 11:48:12;;;;;;;8.40;5.25;;;;;;;;;;5060536;28;20083;-78
2022/10/16 11:50:41;;;;;;;8.85;5.13;;;;;;;;;;5042557;28;20403;-78
2022/10/16 11:53:22;;;;;;;9.15;4.90;;;;;;;;;;5042343;28;20041;-78
2022/10/16 11:55:48;;;;;;;9.95;4.20;;;;;;;;;;5059783;28;20025;-78
2022/10/16 11:58:16;;;;;;;12.00;4.97;;;;;;;;;;5059681;28;20024;-77
2022/10/16 12:00:49;;;;;;;18.40;6.10;;;;;;;;;;5059691;28;20025;-77
2022/10/16 12:03:18;;;;;;;10.55;5.00;;;;;;;;;;5057848;28;20383;-77
2022/10/16 12:05:57;;;;;;;13.13;5.88;;;;;;;;;;5059628;28;20104;-78
2022/10/16 12:08:23;;;;;;;11.55;5.82;;;;;;;;;;5042398;28;20082;-77
2022/10/16 12:10:49;;;;;;;13.70;6.15;;;;;;;;;;5059963;28;20032;-78
2022/10/16 12:13:36;;;;;;;13.75;6.85;;;;;;;;;;5060063;28;20025;-79
2022/10/16 12:16:14;;;;;;;9.48;4.50;;;;;;;;;;5059852;28;20108;-79
2022/10/16 12:18:45;;;;;;;13.20;6.82;;;;;;;;;;5042367;28;20111;-79
2022/10/16 12:21:18;;;;;;;9.75;5.03;;;;;;;;;;5060193;28;20071;-79
2022/10/16 12:23:57;;;;;;;7.57;5.32;;;;;;;;;;5060110;28;20039;-79
2022/10/16 12:26:33;;;;;;;10.65;6.25;;;;;;;;;;5059871;28;20040;-79
2022/10/16 12:29:18;;;;;;;9.43;4.93;;;;;;;;;;5059834;28;20024;-79
2022/10/16 12:31:48;;;;;;;6.90;5.07;;;;;;;;;;5042026;28;20033;-79
2022/10/16 12:34:25;;;;;;;9.25;5.53;;;;;;;;;;5059874;28;20021;-79
2022/10/16 12:36:51;;;;;;;9.88;5.30;;;;;;;;;;5059773;28;20025;-79
2022/10/16 12:39:21;;;;;;;10.88;6.80;;;;;;;;;;5059567;28;20025;-79
2022/10/16 12:41:47;;;;;;;8.32;5.07;;;;;;;;;;5059673;28;20032;-78
2022/10/16 12:44:28;;;;;;;12.32;5.97;;;;;;;;;;5059597;28;20059;-78
2022/10/16 12:46:57;;;;;;;9.88;4.85;;;;;;;;;;5059425;28;20429;-78
2022/10/16 12:49:25;;;;;;;10.45;4.88;;;;;;;;;;5059480;28;20170;-78
2022/10/16 12:51:54;;;;;;;12.80;6.30;;;;;;;;;;5058201;28;20032;-78
2022/10/16 12:54:30;;;;;;;11.65;6.22;;;;;;;;;;5058975;28;20082;-78
2022/10/16 12:57:11;;;;;;;12.35;5.32;;;;;;;;;;5059134;28;20037;-78
2022/10/16 12:59:40;;;;;;;9.88;4.65;;;;;;;;;;5059244;28;20150;-78
2022/10/16 13:02:24;;;;;;;14.55;7.85;;;;;;;;;;5059442;28;20054;-78
2022/10/16 13:05:09;;;;;;;13.98;7.13;;;;;;;;;;5041369;28;20120;-78
2022/10/16 13:07:43;;;;;;;10.85;6.05;;;;;;;;;;5041488;28;20033;-78
2022/10/16 13:10:26;;;;;;;11.93;6.28;;;;;;;;;;5058799;28;20403;-77
2022/10/16 13:13:15;;;;;;;11.82;5.25;;;;;;;;;;5058979;28;20052;-77
2022/10/16 13:15:47;;;;;;;13.65;8.23;;;;;;;;;;5058928;28;20154;-77
2022/10/16 13:18:20;;;;;;;15.05;9.98;;;;;;;;;;5058796;28;20037;-78
2022/10/16 13:20:57;;;;;;;13.40;7.30;;;;;;;;;;5058822;28;20064;-78
2022/10/16 13:23:25;;;;;;;12.13;6.72;;;;;;;;;;5058920;28;20017;-78
2022/10/16 13:25:59;;;;;;;10.65;4.63;;;;;;;;;;5040799;28;20363;-78
2022/10/16 13:28:29;;;;;;;10.32;6.63;;;;;;;;;;5059028;28;20044;-78
2022/10/16 13:30:59;;;;;;;13.57;7.13;;;;;;;;;;5058689;28;20036;-78
2022/10/16 13:33:55;;;;;;;11.43;4.70;;;;;;;;;;5058708;28;20021;-77
2022/10/16 13:36:24;;;;;;;7.97;5.80;;;;;;;;;;4977774;28;20047;-78
2022/10/16 13:39:00;;;;;;;11.68;6.45;;;;;;;;;;4977897;28;20041;-78
2022/10/16 13:41:26;;;;;;;10.90;5.90;;;;;;;;;;4977699;28;20031;-78
2022/10/16 13:43:56;;;;;;;10.07;6.13;;;;;;;;;;4977601;28;20533;-78
2022/10/16 13:46:23;;;;;;;11.63;6.18;;;;;;;;;;4977671;28;20504;-78
2022/10/16 13:48:59;;;;;;;9.10;4.75;;;;;;;;;;4977659;28;20026;-77
2022/10/16 13:51:28;;;;;;;10.20;5.90;;;;;;;;;;4977515;28;20023;-78
2022/10/16 13:53:57;;;;;;;13.60;6.07;;;;;;;;;;4977139;28;20045;-78
2022/10/16 13:56:27;;;;;;;9.60;4.95;;;;;;;;;;4976586;28;20056;-79
2022/10/16 13:59:03;;;;;;;10.05;6.03;;;;;;;;;;4977555;28;20027;-78
2022/10/16 14:01:30;;;;;;;11.35;6.15;;;;;;;;;;4977229;28;20060;-79
2022/10/16 14:04:05;;;;;;;13.50;6.15;;;;;;;;;;4977085;28;20022;-79
2022/10/16 14:06:31;;;;;;;10.48;6.80;;;;;;;;;;4976558;28;20035;-79
2022/10/16 14:09:00;;;;;;;10.32;6.38;;;;;;;;;;4977110;28;20030;-78
2022/10/16 14:11:26;;;;;;;14.55;8.57;;;;;;;;;;4977111;28;20421;-78
2022/10/16 14:13:53;;;;;;;15.45;8.65;;;;;;;;;;5053777;28;20064;-78
2022/10/16 14:16:23;;;;;;;11.43;5.95;;;;;;;;;;5057685;28;20029;-78
2022/10/16 14:19:00;;;;;;;10.65;6.90;;;;;;;;;;5039821;28;20327;-78
2022/10/16 14:21:26;;;;;;;10.25;7.15;;;;;;;;;;5057791;28;20024;-78
2022/10/16 14:23:53;;;;;;;13.43;7.25;;;;;;;;;;5057695;28;20024;-77
2022/10/16 14:26:21;;;;;;;13.00;7.28;;;;;;;;;;5057494;28;20037;-78
2022/10/16 14:28:47;;;;;;;11.52;6.57;;;;;;;;;;5057436;28;20415;-78
2022/10/16 14:31:21;;;;;;;12.18;7.00;;;;;;;;;;5057214;28;20061;-79
2022/10/16 14:33:47;;;;;;;15.93;6.80;;;;;;;;;;5057512;28;20074;-78
2022/10/16 14:36:14;;;;;;;10.68;7.10;;;;;;;;;;5057424;28;20025;-78
2022/10/16 14:38:48;;;;;;;14.15;7.05;;;;;;;;;;5057348;28;20017;-78
2022/10/16 14:41:15;;;;;;;14.88;8.60;;;;;;;;;;5056987;28;20100;-78
2022/10/16 14:43:42;;;;;;;15.40;7.88;;;;;;;;;;5057381;28;20025;-78